sensor_id;sensor_type;location;lat;lon;timestamp;temperature;humidity
59301;DHT22;45073;52.740;6.784;2023-12-04T00:00:25;1.80;99.90
59301;DHT22;45073;52.740;6.784;2023-12-04T00:02:51;1.80;99.90
59301;DHT22;45073;52.740;6.784;2023-12-04T00:05:17;1.80;99.90
59301;DHT22;45073;52.740;6.784;2023-12-04T00:07:42;1.80;99.90
59301;DHT22;45073;52.740;6.784;2023-12-04T00:10:08;1.80;99.90
59301;DHT22;45073;52.740;6.784;2023-12-04T00:12:34;1.80;99.90
59301;DHT22;45073;52.740;6.784;2023-12-04T00:14:59;1.80;99.90
59301;DHT22;45073;52.740;6.784;2023-12-04T00:17:25;1.80;99.90
59301;DHT22;45073;52.740;6.784;2023-12-04T00:19:51;1.80;99.90
59301;DHT22;45073;52.740;6.784;2023-12-04T00:22:16;1.80;99.90
59301;DHT22;45073;52.740;6.784;2023-12-04T00:24:42;1.80;99.90
59301;DHT22;45073;52.740;6.784;2023-12-04T00:27:07;1.80;99.90
59301;DHT22;45073;52.740;6.784;2023-12-04T00:29:33;1.80;99.90
59301;DHT22;45073;52.740;6.784;2023-12-04T00:31:59;1.80;99.90
59301;DHT22;45073;52.740;6.784;2023-12-04T00:34:24;1.80;99.90
59301;DHT22;45073;52.740;6.784;2023-12-04T00:36:50;1.80;99.90
59301;DHT22;45073;52.740;6.784;2023-12-04T00:39:16;1.80;99.90
59301;DHT22;45073;52.740;6.784;2023-12-04T00:41:41;1.80;99.90
59301;DHT22;45073;52.740;6.784;2023-12-04T00:44:07;1.80;99.90
59301;DHT22;45073;52.740;6.784;2023-12-04T00:46:33;1.80;99.90
59301;DHT22;45073;52.740;6.784;2023-12-04T00:48:58;1.80;99.90
59301;DHT22;45073;52.740;6.784;2023-12-04T00:51:24;1.80;99.90
59301;DHT22;45073;52.740;6.784;2023-12-04T00:53:49;1.80;99.90
59301;DHT22;45073;52.740;6.784;2023-12-04T00:56:15;1.80;99.90
59301;DHT22;45073;52.740;6.784;2023-12-04T00:58:41;1.80;99.90
59301;DHT22;45073;52.740;6.784;2023-12-04T01:01:06;1.80;99.90
59301;DHT22;45073;52.740;6.784;2023-12-04T01:03:32;1.80;99.90
59301;DHT22;45073;52.740;6.784;2023-12-04T01:05:59;1.80;99.90
59301;DHT22;45073;52.740;6.784;2023-12-04T01:08:25;1.80;99.90
59301;DHT22;45073;52.740;6.784;2023-12-04T01:10:50;1.80;99.90
59301;DHT22;45073;52.740;6.784;2023-12-04T01:13:16;1.80;99.90
59301;DHT22;45073;52.740;6.784;2023-12-04T01:15:41;1.80;99.90
59301;DHT22;45073;52.740;6.784;2023-12-04T01:18:08;1.80;99.90
59301;DHT22;45073;52.740;6.784;2023-12-04T01:20:34;1.80;99.90
59301;DHT22;45073;52.740;6.784;2023-12-04T01:22:59;1.80;99.90
59301;DHT22;45073;52.740;6.784;2023-12-04T01:25:25;1.80;99.90
59301;DHT22;45073;52.740;6.784;2023-12-04T01:27:51;1.80;99.90
59301;DHT22;45073;52.740;6.784;2023-12-04T01:30:16;1.80;99.90
59301;DHT22;45073;52.740;6.784;2023-12-04T01:32:42;1.80;99.90
59301;DHT22;45073;52.740;6.784;2023-12-04T01:35:08;1.80;99.90
59301;DHT22;45073;52.740;6.784;2023-12-04T01:37:33;1.80;99.90
59301;DHT22;45073;52.740;6.784;2023-12-04T01:39:59;1.80;99.90
59301;DHT22;45073;52.740;6.784;2023-12-04T01:42:24;1.80;99.90
59301;DHT22;45073;52.740;6.784;2023-12-04T01:44:50;1.80;99.90
59301;DHT22;45073;52.740;6.784;2023-12-04T01:47:17;1.80;99.90
59301;DHT22;45073;52.740;6.784;2023-12-04T01:49:43;1.80;99.90
59301;DHT22;45073;52.740;6.784;2023-12-04T01:52:09;1.80;99.90
59301;DHT22;45073;52.740;6.784;2023-12-04T01:54:35;1.80;99.90
59301;DHT22;45073;52.740;6.784;2023-12-04T01:57:03;1.80;99.90
59301;DHT22;45073;52.740;6.784;2023-12-04T01:59:28;1.80;99.90
59301;DHT22;45073;52.740;6.784;2023-12-04T02:01:54;1.80;99.90
59301;DHT22;45073;52.740;6.784;2023-12-04T02:04:21;1.80;99.90
59301;DHT22;45073;52.740;6.784;2023-12-04T02:06:47;1.80;99.90
59301;DHT22;45073;52.740;6.784;2023-12-04T02:09:13;1.80;99.90
59301;DHT22;45073;52.740;6.784;2023-12-04T02:11:41;1.80;99.90
59301;DHT22;45073;52.740;6.784;2023-12-04T02:14:07;1.90;99.90
59301;DHT22;45073;52.740;6.784;2023-12-04T02:16:38;1.80;99.90
59301;DHT22;45073;52.740;6.784;2023-12-04T02:19:07;1.90;99.90
59301;DHT22;45073;52.740;6.784;2023-12-04T02:21:33;1.90;99.90
59301;DHT22;45073;52.740;6.784;2023-12-04T02:23:59;1.90;99.90
59301;DHT22;45073;52.740;6.784;2023-12-04T02:26:32;1.90;99.90
59301;DHT22;45073;52.740;6.784;2023-12-04T02:29:05;1.90;99.90
59301;DHT22;45073;52.740;6.784;2023-12-04T02:31:34;1.90;99.90
59301;DHT22;45073;52.740;6.784;2023-12-04T02:34:01;1.90;99.90
59301;DHT22;45073;52.740;6.784;2023-12-04T02:36:30;1.90;99.90
59301;DHT22;45073;52.740;6.784;2023-12-04T02:38:57;1.90;99.90
59301;DHT22;45073;52.740;6.784;2023-12-04T02:41:23;1.90;99.90
59301;DHT22;45073;52.740;6.784;2023-12-04T02:43:49;1.90;99.90
59301;DHT22;45073;52.740;6.784;2023-12-04T02:46:15;1.90;99.90
59301;DHT22;45073;52.740;6.784;2023-12-04T02:48:40;1.90;99.90
59301;DHT22;45073;52.740;6.784;2023-12-04T02:51:06;1.90;99.90
59301;DHT22;45073;52.740;6.784;2023-12-04T02:53:32;1.90;99.90
59301;DHT22;45073;52.740;6.784;2023-12-04T02:55:58;1.90;99.90
59301;DHT22;45073;52.740;6.784;2023-12-04T02:58:23;1.90;99.90
59301;DHT22;45073;52.740;6.784;2023-12-04T03:00:49;1.90;99.90
59301;DHT22;45073;52.740;6.784;2023-12-04T03:03:14;1.90;99.90
59301;DHT22;45073;52.740;6.784;2023-12-04T03:05:40;1.90;99.90
59301;DHT22;45073;52.740;6.784;2023-12-04T03:08:06;1.90;99.90
59301;DHT22;45073;52.740;6.784;2023-12-04T03:10:31;1.90;99.90
59301;DHT22;45073;52.740;6.784;2023-12-04T03:12:57;1.90;99.90
59301;DHT22;45073;52.740;6.784;2023-12-04T03:15:22;1.90;99.90
59301;DHT22;45073;52.740;6.784;2023-12-04T03:17:48;1.90;99.90
59301;DHT22;45073;52.740;6.784;2023-12-04T03:20:13;1.90;99.90
59301;DHT22;45073;52.740;6.784;2023-12-04T03:22:39;2.00;99.90
59301;DHT22;45073;52.740;6.784;2023-12-04T03:25:05;1.90;99.90
59301;DHT22;45073;52.740;6.784;2023-12-04T03:27:31;1.90;99.90
59301;DHT22;45073;52.740;6.784;2023-12-04T03:29:56;2.00;99.90
59301;DHT22;45073;52.740;6.784;2023-12-04T03:32:22;1.90;99.90
59301;DHT22;45073;52.740;6.784;2023-12-04T03:34:48;1.90;99.90
59301;DHT22;45073;52.740;6.784;2023-12-04T03:37:13;1.90;99.90
59301;DHT22;45073;52.740;6.784;2023-12-04T03:39:39;1.90;99.90
59301;DHT22;45073;52.740;6.784;2023-12-04T03:42:04;2.00;99.90
59301;DHT22;45073;52.740;6.784;2023-12-04T03:44:30;1.90;99.90
59301;DHT22;45073;52.740;6.784;2023-12-04T03:46:56;1.90;99.90
59301;DHT22;45073;52.740;6.784;2023-12-04T03:49:21;1.90;99.90
59301;DHT22;45073;52.740;6.784;2023-12-04T03:51:47;2.00;99.90
59301;DHT22;45073;52.740;6.784;2023-12-04T03:54:12;1.90;99.90
59301;DHT22;45073;52.740;6.784;2023-12-04T03:56:39;1.90;99.90
59301;DHT22;45073;52.740;6.784;2023-12-04T03:59:05;1.90;99.90
59301;DHT22;45073;52.740;6.784;2023-12-04T04:01:31;1.90;99.90
59301;DHT22;45073;52.740;6.784;2023-12-04T04:03:56;1.90;99.90
59301;DHT22;45073;52.740;6.784;2023-12-04T04:06:22;1.90;99.90
59301;DHT22;45073;52.740;6.784;2023-12-04T04:08:48;2.00;99.90
59301;DHT22;45073;52.740;6.784;2023-12-04T04:11:13;2.00;99.90
59301;DHT22;45073;52.740;6.784;2023-12-04T04:13:39;1.90;99.90
59301;DHT22;45073;52.740;6.784;2023-12-04T04:16:05;1.90;99.90
59301;DHT22;45073;52.740;6.784;2023-12-04T04:18:31;1.90;99.90
59301;DHT22;45073;52.740;6.784;2023-12-04T04:20:56;2.00;99.90
59301;DHT22;45073;52.740;6.784;2023-12-04T04:23:22;1.90;99.90
59301;DHT22;45073;52.740;6.784;2023-12-04T04:25:47;2.00;99.90
59301;DHT22;45073;52.740;6.784;2023-12-04T04:28:13;2.00;99.90
59301;DHT22;45073;52.740;6.784;2023-12-04T04:30:39;2.00;99.90
59301;DHT22;45073;52.740;6.784;2023-12-04T04:33:05;2.00;99.90
59301;DHT22;45073;52.740;6.784;2023-12-04T04:35:31;2.00;99.90
59301;DHT22;45073;52.740;6.784;2023-12-04T04:37:57;2.00;99.90
59301;DHT22;45073;52.740;6.784;2023-12-04T04:40:22;2.00;99.90
59301;DHT22;45073;52.740;6.784;2023-12-04T04:42:48;2.00;99.90
59301;DHT22;45073;52.740;6.784;2023-12-04T04:45:14;2.00;99.90
59301;DHT22;45073;52.740;6.784;2023-12-04T04:47:39;2.00;99.90
59301;DHT22;45073;52.740;6.784;2023-12-04T04:50:05;2.00;99.90
59301;DHT22;45073;52.740;6.784;2023-12-04T04:52:31;2.00;99.90
59301;DHT22;45073;52.740;6.784;2023-12-04T04:54:57;2.00;99.90
59301;DHT22;45073;52.740;6.784;2023-12-04T04:57:22;2.00;99.90
59301;DHT22;45073;52.740;6.784;2023-12-04T04:59:48;2.00;99.90
59301;DHT22;45073;52.740;6.784;2023-12-04T05:02:13;2.00;99.90
59301;DHT22;45073;52.740;6.784;2023-12-04T05:04:39;2.00;99.90
59301;DHT22;45073;52.740;6.784;2023-12-04T05:07:04;2.00;99.90
59301;DHT22;45073;52.740;6.784;2023-12-04T05:09:30;2.00;99.90
59301;DHT22;45073;52.740;6.784;2023-12-04T05:11:56;2.00;99.90
59301;DHT22;45073;52.740;6.784;2023-12-04T05:14:21;2.00;99.90
59301;DHT22;45073;52.740;6.784;2023-12-04T05:16:47;2.00;99.90
59301;DHT22;45073;52.740;6.784;2023-12-04T05:19:12;2.00;99.90
59301;DHT22;45073;52.740;6.784;2023-12-04T05:21:38;2.00;99.90
59301;DHT22;45073;52.740;6.784;2023-12-04T05:24:03;2.00;99.90
59301;DHT22;45073;52.740;6.784;2023-12-04T05:26:29;2.00;99.90
59301;DHT22;45073;52.740;6.784;2023-12-04T05:28:55;2.00;99.90
59301;DHT22;45073;52.740;6.784;2023-12-04T05:31:20;2.00;99.90
59301;DHT22;45073;52.740;6.784;2023-12-04T05:33:46;2.00;99.90
59301;DHT22;45073;52.740;6.784;2023-12-04T05:36:11;2.00;99.90
59301;DHT22;45073;52.740;6.784;2023-12-04T05:38:37;2.00;99.90
59301;DHT22;45073;52.740;6.784;2023-12-04T05:41:03;2.00;99.90
59301;DHT22;45073;52.740;6.784;2023-12-04T05:43:28;2.00;99.90
59301;DHT22;45073;52.740;6.784;2023-12-04T05:45:54;2.00;99.90
59301;DHT22;45073;52.740;6.784;2023-12-04T05:48:20;2.00;99.90
59301;DHT22;45073;52.740;6.784;2023-12-04T05:50:45;2.00;99.90
59301;DHT22;45073;52.740;6.784;2023-12-04T05:53:11;2.00;99.90
59301;DHT22;45073;52.740;6.784;2023-12-04T05:55:36;2.10;99.90
59301;DHT22;45073;52.740;6.784;2023-12-04T05:58:02;2.00;99.90
59301;DHT22;45073;52.740;6.784;2023-12-04T06:00:28;2.00;99.90
59301;DHT22;45073;52.740;6.784;2023-12-04T06:02:53;2.00;99.90
59301;DHT22;45073;52.740;6.784;2023-12-04T06:05:19;2.00;99.90
59301;DHT22;45073;52.740;6.784;2023-12-04T06:07:44;2.10;99.90
59301;DHT22;45073;52.740;6.784;2023-12-04T06:10:10;2.00;99.90
59301;DHT22;45073;52.740;6.784;2023-12-04T06:12:36;2.00;99.90
59301;DHT22;45073;52.740;6.784;2023-12-04T06:15:02;2.10;99.90
59301;DHT22;45073;52.740;6.784;2023-12-04T06:17:27;2.00;99.90
59301;DHT22;45073;52.740;6.784;2023-12-04T06:19:53;2.00;99.90
59301;DHT22;45073;52.740;6.784;2023-12-04T06:22:19;2.00;99.90
59301;DHT22;45073;52.740;6.784;2023-12-04T06:24:46;2.00;99.90
59301;DHT22;45073;52.740;6.784;2023-12-04T06:27:15;2.00;99.90
59301;DHT22;45073;52.740;6.784;2023-12-04T06:29:43;2.00;99.90
59301;DHT22;45073;52.740;6.784;2023-12-04T06:32:09;2.00;99.90
59301;DHT22;45073;52.740;6.784;2023-12-04T06:34:35;2.00;99.90
59301;DHT22;45073;52.740;6.784;2023-12-04T06:37:02;2.00;99.90
59301;DHT22;45073;52.740;6.784;2023-12-04T06:39:32;1.90;99.90
59301;DHT22;45073;52.740;6.784;2023-12-04T06:41:58;2.00;99.90
59301;DHT22;45073;52.740;6.784;2023-12-04T06:44:24;1.90;99.90
59301;DHT22;45073;52.740;6.784;2023-12-04T06:46:51;1.90;99.90
59301;DHT22;45073;52.740;6.784;2023-12-04T06:49:18;1.90;99.90
59301;DHT22;45073;52.740;6.784;2023-12-04T06:51:44;1.90;99.90
59301;DHT22;45073;52.740;6.784;2023-12-04T06:54:09;1.90;99.90
59301;DHT22;45073;52.740;6.784;2023-12-04T06:56:36;1.90;99.90
59301;DHT22;45073;52.740;6.784;2023-12-04T06:59:02;1.90;99.90
59301;DHT22;45073;52.740;6.784;2023-12-04T07:01:27;1.90;99.90
59301;DHT22;45073;52.740;6.784;2023-12-04T07:03:53;1.90;99.90
59301;DHT22;45073;52.740;6.784;2023-12-04T07:06:18;1.90;99.90
59301;DHT22;45073;52.740;6.784;2023-12-04T07:08:44;1.90;99.90
59301;DHT22;45073;52.740;6.784;2023-12-04T07:11:09;1.90;99.90
59301;DHT22;45073;52.740;6.784;2023-12-04T07:13:35;1.90;99.90
59301;DHT22;45073;52.740;6.784;2023-12-04T07:16:01;1.90;99.90
59301;DHT22;45073;52.740;6.784;2023-12-04T07:18:28;1.90;99.90
59301;DHT22;45073;52.740;6.784;2023-12-04T07:20:53;1.90;99.90
59301;DHT22;45073;52.740;6.784;2023-12-04T07:23:19;1.90;99.90
59301;DHT22;45073;52.740;6.784;2023-12-04T07:25:45;1.90;99.90
59301;DHT22;45073;52.740;6.784;2023-12-04T07:28:11;1.90;99.90
59301;DHT22;45073;52.740;6.784;2023-12-04T07:30:38;1.90;99.90
59301;DHT22;45073;52.740;6.784;2023-12-04T07:33:03;1.90;99.90
59301;DHT22;45073;52.740;6.784;2023-12-04T07:35:29;1.90;99.90
59301;DHT22;45073;52.740;6.784;2023-12-04T07:37:54;1.90;99.90
59301;DHT22;45073;52.740;6.784;2023-12-04T07:40:20;1.80;99.90
59301;DHT22;45073;52.740;6.784;2023-12-04T07:42:48;1.90;99.90
59301;DHT22;45073;52.740;6.784;2023-12-04T07:45:13;1.90;99.90
59301;DHT22;45073;52.740;6.784;2023-12-04T07:47:41;1.90;99.90
59301;DHT22;45073;52.740;6.784;2023-12-04T07:50:07;1.90;99.90
59301;DHT22;45073;52.740;6.784;2023-12-04T07:52:32;1.90;99.90
59301;DHT22;45073;52.740;6.784;2023-12-04T07:54:58;1.90;99.90
59301;DHT22;45073;52.740;6.784;2023-12-04T07:57:24;1.90;99.90
59301;DHT22;45073;52.740;6.784;2023-12-04T07:59:49;1.90;99.90
59301;DHT22;45073;52.740;6.784;2023-12-04T08:02:15;1.90;99.90
59301;DHT22;45073;52.740;6.784;2023-12-04T08:04:41;1.90;99.90
59301;DHT22;45073;52.740;6.784;2023-12-04T08:07:06;1.90;99.90
59301;DHT22;45073;52.740;6.784;2023-12-04T08:09:32;1.90;99.90
59301;DHT22;45073;52.740;6.784;2023-12-04T08:11:57;1.90;99.90
59301;DHT22;45073;52.740;6.784;2023-12-04T08:14:24;1.90;99.90
59301;DHT22;45073;52.740;6.784;2023-12-04T08:16:50;1.90;99.90
59301;DHT22;45073;52.740;6.784;2023-12-04T08:19:16;1.90;99.90
59301;DHT22;45073;52.740;6.784;2023-12-04T08:21:41;1.90;99.90
59301;DHT22;45073;52.740;6.784;2023-12-04T08:24:07;2.00;99.90
59301;DHT22;45073;52.740;6.784;2023-12-04T08:26:33;1.90;99.90
59301;DHT22;45073;52.740;6.784;2023-12-04T08:28:59;2.00;99.90
59301;DHT22;45073;52.740;6.784;2023-12-04T08:31:24;2.00;99.90
59301;DHT22;45073;52.740;6.784;2023-12-04T08:33:50;2.00;99.90
59301;DHT22;45073;52.740;6.784;2023-12-04T08:36:15;2.00;99.90
59301;DHT22;45073;52.740;6.784;2023-12-04T08:38:41;2.00;99.90
59301;DHT22;45073;52.740;6.784;2023-12-04T08:41:07;2.00;99.90
59301;DHT22;45073;52.740;6.784;2023-12-04T08:43:33;2.00;99.90
59301;DHT22;45073;52.740;6.784;2023-12-04T08:45:58;2.00;99.90
59301;DHT22;45073;52.740;6.784;2023-12-04T08:48:25;2.10;99.90
59301;DHT22;45073;52.740;6.784;2023-12-04T08:50:51;2.10;99.90
59301;DHT22;45073;52.740;6.784;2023-12-04T08:53:16;2.10;99.90
59301;DHT22;45073;52.740;6.784;2023-12-04T08:55:42;2.10;99.90
59301;DHT22;45073;52.740;6.784;2023-12-04T08:58:08;2.10;99.90
59301;DHT22;45073;52.740;6.784;2023-12-04T09:00:33;2.10;99.90
59301;DHT22;45073;52.740;6.784;2023-12-04T09:03:02;2.10;99.90
59301;DHT22;45073;52.740;6.784;2023-12-04T09:05:27;2.20;99.90
59301;DHT22;45073;52.740;6.784;2023-12-04T09:07:56;2.20;99.90
59301;DHT22;45073;52.740;6.784;2023-12-04T09:10:22;2.30;99.90
59301;DHT22;45073;52.740;6.784;2023-12-04T09:12:47;2.20;99.90
59301;DHT22;45073;52.740;6.784;2023-12-04T09:15:13;2.30;99.90
59301;DHT22;45073;52.740;6.784;2023-12-04T09:17:38;2.30;99.90
59301;DHT22;45073;52.740;6.784;2023-12-04T09:20:04;2.30;99.90
59301;DHT22;45073;52.740;6.784;2023-12-04T09:22:31;2.40;99.90
59301;DHT22;45073;52.740;6.784;2023-12-04T09:24:57;2.40;99.90
59301;DHT22;45073;52.740;6.784;2023-12-04T09:27:23;2.40;99.90
59301;DHT22;45073;52.740;6.784;2023-12-04T09:29:48;2.50;99.90
59301;DHT22;45073;52.740;6.784;2023-12-04T09:32:14;2.50;99.90
59301;DHT22;45073;52.740;6.784;2023-12-04T09:34:40;2.50;99.90
59301;DHT22;45073;52.740;6.784;2023-12-04T09:37:05;2.60;99.90
59301;DHT22;45073;52.740;6.784;2023-12-04T09:39:32;2.60;99.90
59301;DHT22;45073;52.740;6.784;2023-12-04T09:41:58;2.60;99.90
59301;DHT22;45073;52.740;6.784;2023-12-04T09:44:28;2.70;99.90
59301;DHT22;45073;52.740;6.784;2023-12-04T09:46:54;2.70;99.90
59301;DHT22;45073;52.740;6.784;2023-12-04T09:49:20;2.80;99.90
59301;DHT22;45073;52.740;6.784;2023-12-04T09:51:47;2.80;99.90
59301;DHT22;45073;52.740;6.784;2023-12-04T09:54:13;2.80;99.90
59301;DHT22;45073;52.740;6.784;2023-12-04T09:56:42;2.90;99.90
59301;DHT22;45073;52.740;6.784;2023-12-04T09:59:09;2.90;99.90
59301;DHT22;45073;52.740;6.784;2023-12-04T10:01:40;3.00;99.90
59301;DHT22;45073;52.740;6.784;2023-12-04T10:04:06;3.00;99.90
59301;DHT22;45073;52.740;6.784;2023-12-04T10:06:33;3.10;99.90
59301;DHT22;45073;52.740;6.784;2023-12-04T10:08:59;3.10;99.90
59301;DHT22;45073;52.740;6.784;2023-12-04T10:11:25;3.20;99.90
59301;DHT22;45073;52.740;6.784;2023-12-04T10:13:52;3.20;99.90
59301;DHT22;45073;52.740;6.784;2023-12-04T10:16:32;3.30;99.90
59301;DHT22;45073;52.740;6.784;2023-12-04T10:19:20;3.40;99.90
59301;DHT22;45073;52.740;6.784;2023-12-04T10:21:49;3.40;99.90
59301;DHT22;45073;52.740;6.784;2023-12-04T10:24:36;3.40;99.90
59301;DHT22;45073;52.740;6.784;2023-12-04T10:27:06;3.50;99.90
59301;DHT22;45073;52.740;6.784;2023-12-04T10:29:48;3.50;99.90
59301;DHT22;45073;52.740;6.784;2023-12-04T10:32:18;3.60;99.90
59301;DHT22;45073;52.740;6.784;2023-12-04T10:34:47;3.60;99.90
59301;DHT22;45073;52.740;6.784;2023-12-04T10:37:12;3.60;99.90
59301;DHT22;45073;52.740;6.784;2023-12-04T10:39:49;3.60;99.90
59301;DHT22;45073;52.740;6.784;2023-12-04T10:42:29;3.70;99.90
59301;DHT22;45073;52.740;6.784;2023-12-04T10:44:56;3.70;99.90
59301;DHT22;45073;52.740;6.784;2023-12-04T10:47:22;3.70;99.90
59301;DHT22;45073;52.740;6.784;2023-12-04T10:49:52;3.70;99.90
59301;DHT22;45073;52.740;6.784;2023-12-04T10:52:18;3.70;99.90
59301;DHT22;45073;52.740;6.784;2023-12-04T10:54:48;3.70;99.90
59301;DHT22;45073;52.740;6.784;2023-12-04T10:57:21;3.70;99.90
59301;DHT22;45073;52.740;6.784;2023-12-04T10:59:47;3.70;99.90
59301;DHT22;45073;52.740;6.784;2023-12-04T11:02:18;3.70;99.90
59301;DHT22;45073;52.740;6.784;2023-12-04T11:04:49;3.60;99.90
59301;DHT22;45073;52.740;6.784;2023-12-04T11:07:16;3.70;99.90
59301;DHT22;45073;52.740;6.784;2023-12-04T11:09:43;3.60;99.90
59301;DHT22;45073;52.740;6.784;2023-12-04T11:12:11;3.60;99.90
59301;DHT22;45073;52.740;6.784;2023-12-04T11:14:46;3.60;99.90
59301;DHT22;45073;52.740;6.784;2023-12-04T11:17:17;3.60;99.90
59301;DHT22;45073;52.740;6.784;2023-12-04T11:19:55;3.60;99.90
59301;DHT22;45073;52.740;6.784;2023-12-04T11:22:25;3.60;99.90
59301;DHT22;45073;52.740;6.784;2023-12-04T11:24:51;3.60;99.90
59301;DHT22;45073;52.740;6.784;2023-12-04T11:27:18;3.60;99.90
59301;DHT22;45073;52.740;6.784;2023-12-04T11:29:45;3.60;99.90
59301;DHT22;45073;52.740;6.784;2023-12-04T11:32:15;3.60;99.90
59301;DHT22;45073;52.740;6.784;2023-12-04T11:34:54;3.60;99.90
59301;DHT22;45073;52.740;6.784;2023-12-04T11:37:21;3.60;99.90
59301;DHT22;45073;52.740;6.784;2023-12-04T11:39:49;3.70;99.90
59301;DHT22;45073;52.740;6.784;2023-12-04T11:42:19;3.70;99.90
59301;DHT22;45073;52.740;6.784;2023-12-04T11:44:48;3.70;99.90
59301;DHT22;45073;52.740;6.784;2023-12-04T11:47:14;3.70;99.90
59301;DHT22;45073;52.740;6.784;2023-12-04T11:49:39;3.70;99.90
59301;DHT22;45073;52.740;6.784;2023-12-04T11:52:05;3.70;99.90
59301;DHT22;45073;52.740;6.784;2023-12-04T11:55:01;3.80;99.90
59301;DHT22;45073;52.740;6.784;2023-12-04T11:57:33;3.80;99.90
59301;DHT22;45073;52.740;6.784;2023-12-04T12:00:22;3.80;99.90
59301;DHT22;45073;52.740;6.784;2023-12-04T12:05:21;3.80;99.90
59301;DHT22;45073;52.740;6.784;2023-12-04T12:07:47;3.90;99.90
59301;DHT22;45073;52.740;6.784;2023-12-04T12:10:13;3.90;99.90
59301;DHT22;45073;52.740;6.784;2023-12-04T12:12:45;3.90;99.90
59301;DHT22;45073;52.740;6.784;2023-12-04T12:15:11;3.90;99.90
59301;DHT22;45073;52.740;6.784;2023-12-04T12:17:38;3.90;99.90
59301;DHT22;45073;52.740;6.784;2023-12-04T12:20:06;3.90;99.90
59301;DHT22;45073;52.740;6.784;2023-12-04T12:22:33;3.90;99.90
59301;DHT22;45073;52.740;6.784;2023-12-04T12:24:59;3.90;99.90
59301;DHT22;45073;52.740;6.784;2023-12-04T12:27:25;3.90;99.90
59301;DHT22;45073;52.740;6.784;2023-12-04T12:29:51;3.90;99.90
59301;DHT22;45073;52.740;6.784;2023-12-04T12:32:17;3.90;99.90
59301;DHT22;45073;52.740;6.784;2023-12-04T12:34:42;3.80;99.90
59301;DHT22;45073;52.740;6.784;2023-12-04T12:37:09;3.90;99.90
59301;DHT22;45073;52.740;6.784;2023-12-04T12:39:34;3.90;99.90
59301;DHT22;45073;52.740;6.784;2023-12-04T12:42:01;3.90;99.90
59301;DHT22;45073;52.740;6.784;2023-12-04T12:44:37;3.80;99.90
59301;DHT22;45073;52.740;6.784;2023-12-04T12:47:05;3.90;99.90
59301;DHT22;45073;52.740;6.784;2023-12-04T12:49:31;3.80;99.90
59301;DHT22;45073;52.740;6.784;2023-12-04T12:51:57;3.80;99.90
59301;DHT22;45073;52.740;6.784;2023-12-04T12:54:25;3.80;99.90
59301;DHT22;45073;52.740;6.784;2023-12-04T12:56:51;3.80;99.90
59301;DHT22;45073;52.740;6.784;2023-12-04T12:59:17;3.80;99.90
59301;DHT22;45073;52.740;6.784;2023-12-04T13:01:48;3.80;99.90
59301;DHT22;45073;52.740;6.784;2023-12-04T13:04:14;3.80;99.90
59301;DHT22;45073;52.740;6.784;2023-12-04T13:06:43;3.80;99.90
59301;DHT22;45073;52.740;6.784;2023-12-04T13:09:08;3.80;99.90
59301;DHT22;45073;52.740;6.784;2023-12-04T13:11:34;3.80;99.90
59301;DHT22;45073;52.740;6.784;2023-12-04T13:14:00;3.70;99.90
59301;DHT22;45073;52.740;6.784;2023-12-04T13:16:26;3.70;99.90
59301;DHT22;45073;52.740;6.784;2023-12-04T13:18:52;3.80;99.90
59301;DHT22;45073;52.740;6.784;2023-12-04T13:21:17;3.70;99.90
59301;DHT22;45073;52.740;6.784;2023-12-04T13:23:43;3.70;99.90
59301;DHT22;45073;52.740;6.784;2023-12-04T13:26:08;3.70;99.90
59301;DHT22;45073;52.740;6.784;2023-12-04T13:28:37;3.70;99.90
59301;DHT22;45073;52.740;6.784;2023-12-04T13:31:04;3.70;99.90
59301;DHT22;45073;52.740;6.784;2023-12-04T13:33:30;3.70;99.90
59301;DHT22;45073;52.740;6.784;2023-12-04T13:35:57;3.70;99.90
59301;DHT22;45073;52.740;6.784;2023-12-04T13:38:22;3.70;99.90
59301;DHT22;45073;52.740;6.784;2023-12-04T13:40:48;3.70;99.90
59301;DHT22;45073;52.740;6.784;2023-12-04T13:43:26;3.70;99.90
59301;DHT22;45073;52.740;6.784;2023-12-04T13:46:10;3.60;99.90
59301;DHT22;45073;52.740;6.784;2023-12-04T13:48:36;3.60;99.90
59301;DHT22;45073;52.740;6.784;2023-12-04T13:51:06;3.60;99.90
59301;DHT22;45073;52.740;6.784;2023-12-04T13:53:32;3.60;99.90
59301;DHT22;45073;52.740;6.784;2023-12-04T13:55:58;3.60;99.90
59301;DHT22;45073;52.740;6.784;2023-12-04T13:58:27;3.60;99.90
59301;DHT22;45073;52.740;6.784;2023-12-04T14:01:01;3.50;99.90
59301;DHT22;45073;52.740;6.784;2023-12-04T14:03:36;3.50;99.90
59301;DHT22;45073;52.740;6.784;2023-12-04T14:06:02;3.50;99.90
59301;DHT22;45073;52.740;6.784;2023-12-04T14:08:28;3.50;99.90
59301;DHT22;45073;52.740;6.784;2023-12-04T14:10:53;3.50;99.90
59301;DHT22;45073;52.740;6.784;2023-12-04T14:13:19;3.50;99.90
59301;DHT22;45073;52.740;6.784;2023-12-04T14:15:45;3.50;99.90
59301;DHT22;45073;52.740;6.784;2023-12-04T14:18:11;3.40;99.90
59301;DHT22;45073;52.740;6.784;2023-12-04T14:20:37;3.50;99.90
59301;DHT22;45073;52.740;6.784;2023-12-04T14:23:02;3.40;99.90
59301;DHT22;45073;52.740;6.784;2023-12-04T14:25:29;3.50;99.90
59301;DHT22;45073;52.740;6.784;2023-12-04T14:27:55;3.50;99.90
59301;DHT22;45073;52.740;6.784;2023-12-04T14:30:20;3.50;99.90
59301;DHT22;45073;52.740;6.784;2023-12-04T14:32:46;3.50;99.90
59301;DHT22;45073;52.740;6.784;2023-12-04T14:35:11;3.40;99.90
59301;DHT22;45073;52.740;6.784;2023-12-04T14:37:39;3.40;99.90
59301;DHT22;45073;52.740;6.784;2023-12-04T14:40:05;3.50;99.90
59301;DHT22;45073;52.740;6.784;2023-12-04T14:42:31;3.50;99.90
59301;DHT22;45073;52.740;6.784;2023-12-04T14:44:57;3.50;99.90
59301;DHT22;45073;52.740;6.784;2023-12-04T14:47:22;3.40;99.90
59301;DHT22;45073;52.740;6.784;2023-12-04T14:49:48;3.50;99.90
59301;DHT22;45073;52.740;6.784;2023-12-04T14:52:19;3.50;99.90
59301;DHT22;45073;52.740;6.784;2023-12-04T14:54:47;3.40;99.90
59301;DHT22;45073;52.740;6.784;2023-12-04T14:57:31;3.40;99.90
59301;DHT22;45073;52.740;6.784;2023-12-04T15:00:09;3.40;99.90
59301;DHT22;45073;52.740;6.784;2023-12-04T15:02:36;3.40;99.90
59301;DHT22;45073;52.740;6.784;2023-12-04T15:05:11;3.40;99.90
59301;DHT22;45073;52.740;6.784;2023-12-04T15:08:11;3.40;99.90
59301;DHT22;45073;52.740;6.784;2023-12-04T15:10:48;3.40;99.90
59301;DHT22;45073;52.740;6.784;2023-12-04T15:13:32;3.30;99.90
59301;DHT22;45073;52.740;6.784;2023-12-04T15:16:21;3.30;99.90
59301;DHT22;45073;52.740;6.784;2023-12-04T15:19:00;3.30;99.90
59301;DHT22;45073;52.740;6.784;2023-12-04T15:21:38;3.30;99.90
59301;DHT22;45073;52.740;6.784;2023-12-04T15:24:05;3.30;99.90
59301;DHT22;45073;52.740;6.784;2023-12-04T15:26:32;3.30;99.90
59301;DHT22;45073;52.740;6.784;2023-12-04T15:28:58;3.30;99.90
59301;DHT22;45073;52.740;6.784;2023-12-04T15:31:23;3.30;99.90
59301;DHT22;45073;52.740;6.784;2023-12-04T15:33:49;3.20;99.90
59301;DHT22;45073;52.740;6.784;2023-12-04T15:36:15;3.20;99.90
59301;DHT22;45073;52.740;6.784;2023-12-04T15:38:40;3.20;99.90
59301;DHT22;45073;52.740;6.784;2023-12-04T15:41:06;3.20;99.90
59301;DHT22;45073;52.740;6.784;2023-12-04T15:43:31;3.20;99.90
59301;DHT22;45073;52.740;6.784;2023-12-04T15:45:57;3.20;99.90